sensor_id;sensor_type;location;lat;lon;timestamp;P1;durP1;ratioP1;P2;durP2;ratioP2
13102;SDS011;52970;46.752;17.108;2023-06-26T00:01:38;9.73;;;8.00;;
13102;SDS011;52970;46.752;17.108;2023-06-26T00:04:05;8.15;;;7.35;;
13102;SDS011;52970;46.752;17.108;2023-06-26T00:06:30;8.90;;;7.97;;
13102;SDS011;52970;46.752;17.108;2023-06-26T00:08:55;9.45;;;7.80;;
13102;SDS011;52970;46.752;17.108;2023-06-26T00:11:22;9.13;;;7.75;;
13102;SDS011;52970;46.752;17.108;2023-06-26T00:13:47;8.98;;;7.97;;
13102;SDS011;52970;46.752;17.108;2023-06-26T00:16:12;8.60;;;7.70;;
13102;SDS011;52970;46.752;17.108;2023-06-26T00:18:38;8.52;;;7.72;;
13102;SDS011;52970;46.752;17.108;2023-06-26T00:21:03;8.30;;;7.38;;
13102;SDS011;52970;46.752;17.108;2023-06-26T00:23:28;10.07;;;8.32;;
13102;SDS011;52970;46.752;17.108;2023-06-26T00:25:56;8.25;;;7.38;;
13102;SDS011;52970;46.752;17.108;2023-06-26T00:28:21;8.32;;;7.50;;
13102;SDS011;52970;46.752;17.108;2023-06-26T00:30:46;9.02;;;8.13;;
13102;SDS011;52970;46.752;17.108;2023-06-26T00:33:12;8.60;;;6.97;;
13102;SDS011;52970;46.752;17.108;2023-06-26T00:35:37;8.13;;;7.30;;
13102;SDS011;52970;46.752;17.108;2023-06-26T00:38:02;7.75;;;7.05;;
13102;SDS011;52970;46.752;17.108;2023-06-26T00:40:27;10.13;;;7.85;;
13102;SDS011;52970;46.752;17.108;2023-06-26T00:42:53;11.38;;;8.68;;
13102;SDS011;52970;46.752;17.108;2023-06-26T00:45:18;9.27;;;7.80;;
13102;SDS011;52970;46.752;17.108;2023-06-26T00:47:43;8.25;;;7.40;;
13102;SDS011;52970;46.752;17.108;2023-06-26T00:50:09;8.35;;;7.35;;
13102;SDS011;52970;46.752;17.108;2023-06-26T00:52:34;10.00;;;8.20;;
13102;SDS011;52970;46.752;17.108;2023-06-26T00:55:00;9.95;;;8.20;;
13102;SDS011;52970;46.752;17.108;2023-06-26T00:57:25;8.65;;;7.32;;
13102;SDS011;52970;46.752;17.108;2023-06-26T00:59:50;8.25;;;7.28;;
13102;SDS011;52970;46.752;17.108;2023-06-26T01:02:16;10.95;;;8.07;;
13102;SDS011;52970;46.752;17.108;2023-06-26T01:04:51;8.90;;;7.82;;
13102;SDS011;52970;46.752;17.108;2023-06-26T01:07:17;9.38;;;8.45;;
13102;SDS011;52970;46.752;17.108;2023-06-26T01:09:44;8.82;;;6.88;;
13102;SDS011;52970;46.752;17.108;2023-06-26T01:12:10;7.93;;;7.13;;
13102;SDS011;52970;46.752;17.108;2023-06-26T01:14:35;9.30;;;7.85;;
13102;SDS011;52970;46.752;17.108;2023-06-26T01:17:01;9.65;;;8.32;;
13102;SDS011;52970;46.752;17.108;2023-06-26T01:19:27;9.70;;;7.53;;
13102;SDS011;52970;46.752;17.108;2023-06-26T01:24:25;9.02;;;7.68;;
13102;SDS011;52970;46.752;17.108;2023-06-26T01:26:56;8.30;;;7.40;;
13102;SDS011;52970;46.752;17.108;2023-06-26T01:29:23;8.93;;;7.68;;
13102;SDS011;52970;46.752;17.108;2023-06-26T01:31:49;9.10;;;7.22;;
13102;SDS011;52970;46.752;17.108;2023-06-26T01:34:15;10.07;;;7.95;;
13102;SDS011;52970;46.752;17.108;2023-06-26T01:36:41;8.65;;;7.68;;
13102;SDS011;52970;46.752;17.108;2023-06-26T01:39:06;9.93;;;8.00;;
13102;SDS011;52970;46.752;17.108;2023-06-26T01:41:33;10.30;;;7.00;;
13102;SDS011;52970;46.752;17.108;2023-06-26T01:44:04;8.32;;;7.43;;
13102;SDS011;52970;46.752;17.108;2023-06-26T01:49:31;8.40;;;7.28;;
13102;SDS011;52970;46.752;17.108;2023-06-26T01:52:17;11.43;;;8.00;;
13102;SDS011;52970;46.752;17.108;2023-06-26T01:54:47;9.13;;;8.20;;
13102;SDS011;52970;46.752;17.108;2023-06-26T01:57:14;9.57;;;7.63;;
13102;SDS011;52970;46.752;17.108;2023-06-26T01:59:39;8.30;;;7.25;;
13102;SDS011;52970;46.752;17.108;2023-06-26T02:02:08;10.40;;;8.55;;
13102;SDS011;52970;46.752;17.108;2023-06-26T02:04:33;9.77;;;8.77;;
13102;SDS011;52970;46.752;17.108;2023-06-26T02:06:59;11.48;;;7.82;;
13102;SDS011;52970;46.752;17.108;2023-06-26T02:09:24;8.60;;;7.75;;
13102;SDS011;52970;46.752;17.108;2023-06-26T02:11:49;9.20;;;7.70;;
13102;SDS011;52970;46.752;17.108;2023-06-26T02:14:14;9.73;;;8.05;;
13102;SDS011;52970;46.752;17.108;2023-06-26T02:16:40;8.82;;;7.70;;
13102;SDS011;52970;46.752;17.108;2023-06-26T02:19:05;11.73;;;8.60;;
13102;SDS011;52970;46.752;17.108;2023-06-26T02:21:31;10.52;;;8.23;;
13102;SDS011;52970;46.752;17.108;2023-06-26T02:23:56;9.77;;;8.27;;
13102;SDS011;52970;46.752;17.108;2023-06-26T02:26:21;8.85;;;7.75;;
13102;SDS011;52970;46.752;17.108;2023-06-26T02:28:47;9.93;;;8.13;;
13102;SDS011;52970;46.752;17.108;2023-06-26T02:31:12;9.85;;;7.93;;
13102;SDS011;52970;46.752;17.108;2023-06-26T02:33:37;9.23;;;8.32;;
13102;SDS011;52970;46.752;17.108;2023-06-26T02:36:04;9.80;;;8.15;;
13102;SDS011;52970;46.752;17.108;2023-06-26T02:38:29;9.05;;;7.53;;
13102;SDS011;52970;46.752;17.108;2023-06-26T02:40:55;9.02;;;8.13;;
13102;SDS011;52970;46.752;17.108;2023-06-26T02:43:20;10.70;;;8.57;;
13102;SDS011;52970;46.752;17.108;2023-06-26T02:45:45;10.23;;;8.60;;
13102;SDS011;52970;46.752;17.108;2023-06-26T02:48:10;9.02;;;8.13;;
13102;SDS011;52970;46.752;17.108;2023-06-26T02:50:36;8.80;;;7.85;;
13102;SDS011;52970;46.752;17.108;2023-06-26T02:53:01;9.25;;;8.10;;
13102;SDS011;52970;46.752;17.108;2023-06-26T02:55:26;10.63;;;7.97;;
13102;SDS011;52970;46.752;17.108;2023-06-26T02:57:51;8.95;;;8.00;;
13102;SDS011;52970;46.752;17.108;2023-06-26T03:00:17;10.10;;;8.20;;
13102;SDS011;52970;46.752;17.108;2023-06-26T03:02:42;11.45;;;8.50;;
13102;SDS011;52970;46.752;17.108;2023-06-26T03:05:08;12.65;;;8.35;;
13102;SDS011;52970;46.752;17.108;2023-06-26T03:07:33;9.02;;;8.10;;
13102;SDS011;52970;46.752;17.108;2023-06-26T03:09:59;9.65;;;8.52;;
13102;SDS011;52970;46.752;17.108;2023-06-26T03:12:25;10.80;;;8.60;;
13102;SDS011;52970;46.752;17.108;2023-06-26T03:14:50;9.88;;;8.60;;
13102;SDS011;52970;46.752;17.108;2023-06-26T03:17:15;10.70;;;9.35;;
13102;SDS011;52970;46.752;17.108;2023-06-26T03:19:41;11.23;;;8.57;;
13102;SDS011;52970;46.752;17.108;2023-06-26T03:22:06;10.05;;;8.77;;
13102;SDS011;52970;46.752;17.108;2023-06-26T03:24:31;9.45;;;7.70;;
13102;SDS011;52970;46.752;17.108;2023-06-26T03:26:56;9.68;;;8.20;;
13102;SDS011;52970;46.752;17.108;2023-06-26T03:29:22;11.60;;;8.63;;
13102;SDS011;52970;46.752;17.108;2023-06-26T03:31:47;10.02;;;9.02;;
13102;SDS011;52970;46.752;17.108;2023-06-26T03:34:12;10.85;;;8.27;;
13102;SDS011;52970;46.752;17.108;2023-06-26T03:36:37;9.85;;;8.85;;
13102;SDS011;52970;46.752;17.108;2023-06-26T03:39:03;9.60;;;8.65;;
13102;SDS011;52970;46.752;17.108;2023-06-26T03:41:29;10.10;;;8.40;;
13102;SDS011;52970;46.752;17.108;2023-06-26T03:43:54;9.25;;;8.35;;
13102;SDS011;52970;46.752;17.108;2023-06-26T03:46:21;11.15;;;8.52;;
13102;SDS011;52970;46.752;17.108;2023-06-26T03:48:47;10.80;;;9.70;;
13102;SDS011;52970;46.752;17.108;2023-06-26T03:51:12;9.85;;;8.85;;
13102;SDS011;52970;46.752;17.108;2023-06-26T03:53:37;10.63;;;8.95;;
13102;SDS011;52970;46.752;17.108;2023-06-26T03:56:02;14.15;;;9.00;;
13102;SDS011;52970;46.752;17.108;2023-06-26T03:58:28;9.90;;;8.90;;
13102;SDS011;52970;46.752;17.108;2023-06-26T04:00:53;11.10;;;8.95;;
13102;SDS011;52970;46.752;17.108;2023-06-26T04:03:18;11.77;;;9.50;;
13102;SDS011;52970;46.752;17.108;2023-06-26T04:05:43;12.63;;;9.10;;
13102;SDS011;52970;46.752;17.108;2023-06-26T04:08:09;10.45;;;8.82;;
13102;SDS011;52970;46.752;17.108;2023-06-26T04:10:34;10.40;;;8.32;;
13102;SDS011;52970;46.752;17.108;2023-06-26T04:13:01;13.63;;;9.23;;
13102;SDS011;52970;46.752;17.108;2023-06-26T04:15:26;16.80;;;9.15;;
13102;SDS011;52970;46.752;17.108;2023-06-26T04:17:51;10.52;;;8.95;;
13102;SDS011;52970;46.752;17.108;2023-06-26T04:20:16;12.75;;;9.07;;
13102;SDS011;52970;46.752;17.108;2023-06-26T04:22:42;14.07;;;9.32;;
13102;SDS011;52970;46.752;17.108;2023-06-26T04:25:08;10.05;;;8.90;;
13102;SDS011;52970;46.752;17.108;2023-06-26T04:27:33;14.18;;;9.05;;
13102;SDS011;52970;46.752;17.108;2023-06-26T04:29:59;11.20;;;9.02;;
13102;SDS011;52970;46.752;17.108;2023-06-26T04:32:24;12.68;;;9.73;;
13102;SDS011;52970;46.752;17.108;2023-06-26T04:34:49;11.88;;;9.05;;
13102;SDS011;52970;46.752;17.108;2023-06-26T04:37:14;10.10;;;9.02;;
13102;SDS011;52970;46.752;17.108;2023-06-26T04:39:43;10.10;;;9.07;;
13102;SDS011;52970;46.752;17.108;2023-06-26T04:42:08;10.30;;;9.20;;
13102;SDS011;52970;46.752;17.108;2023-06-26T04:44:34;10.35;;;9.27;;
13102;SDS011;52970;46.752;17.108;2023-06-26T04:46:59;12.13;;;8.93;;
13102;SDS011;52970;46.752;17.108;2023-06-26T04:49:24;11.02;;;9.60;;
13102;SDS011;52970;46.752;17.108;2023-06-26T04:51:50;12.60;;;9.43;;
13102;SDS011;52970;46.752;17.108;2023-06-26T04:54:16;10.98;;;9.88;;
13102;SDS011;52970;46.752;17.108;2023-06-26T04:56:41;11.55;;;9.38;;
13102;SDS011;52970;46.752;17.108;2023-06-26T04:59:06;10.48;;;9.00;;
13102;SDS011;52970;46.752;17.108;2023-06-26T05:01:32;11.40;;;9.52;;
13102;SDS011;52970;46.752;17.108;2023-06-26T05:03:57;10.70;;;9.40;;
13102;SDS011;52970;46.752;17.108;2023-06-26T05:06:23;11.75;;;9.82;;
13102;SDS011;52970;46.752;17.108;2023-06-26T05:08:48;9.93;;;8.93;;
13102;SDS011;52970;46.752;17.108;2023-06-26T05:11:13;10.70;;;9.25;;
13102;SDS011;52970;46.752;17.108;2023-06-26T05:13:38;13.43;;;9.50;;
13102;SDS011;52970;46.752;17.108;2023-06-26T05:16:05;11.05;;;9.82;;
13102;SDS011;52970;46.752;17.108;2023-06-26T05:18:30;11.57;;;10.38;;
13102;SDS011;52970;46.752;17.108;2023-06-26T05:20:55;14.15;;;10.73;;
13102;SDS011;52970;46.752;17.108;2023-06-26T05:23:21;11.68;;;10.48;;
13102;SDS011;52970;46.752;17.108;2023-06-26T05:25:48;16.48;;;11.40;;
13102;SDS011;52970;46.752;17.108;2023-06-26T05:28:15;12.63;;;10.85;;
13102;SDS011;52970;46.752;17.108;2023-06-26T05:30:40;14.45;;;9.75;;
13102;SDS011;52970;46.752;17.108;2023-06-26T05:33:05;12.88;;;10.35;;
13102;SDS011;52970;46.752;17.108;2023-06-26T05:35:31;11.73;;;10.20;;
13102;SDS011;52970;46.752;17.108;2023-06-26T05:37:57;10.55;;;9.55;;
13102;SDS011;52970;46.752;17.108;2023-06-26T05:40:23;11.88;;;10.05;;
13102;SDS011;52970;46.752;17.108;2023-06-26T05:42:48;10.88;;;9.77;;
13102;SDS011;52970;46.752;17.108;2023-06-26T05:45:14;13.60;;;10.40;;
13102;SDS011;52970;46.752;17.108;2023-06-26T05:47:39;11.15;;;9.82;;
13102;SDS011;52970;46.752;17.108;2023-06-26T05:50:05;11.05;;;9.82;;
13102;SDS011;52970;46.752;17.108;2023-06-26T05:52:30;10.48;;;9.23;;
13102;SDS011;52970;46.752;17.108;2023-06-26T05:54:56;11.07;;;9.07;;
13102;SDS011;52970;46.752;17.108;2023-06-26T05:57:25;10.02;;;8.90;;
13102;SDS011;52970;46.752;17.108;2023-06-26T05:59:52;10.43;;;8.88;;
13102;SDS011;52970;46.752;17.108;2023-06-26T06:02:17;12.23;;;8.68;;
13102;SDS011;52970;46.752;17.108;2023-06-26T06:04:42;10.23;;;8.47;;
13102;SDS011;52970;46.752;17.108;2023-06-26T06:07:08;9.90;;;8.90;;
13102;SDS011;52970;46.752;17.108;2023-06-26T06:09:33;9.85;;;7.97;;
13102;SDS011;52970;46.752;17.108;2023-06-26T06:11:59;10.07;;;8.57;;
13102;SDS011;52970;46.752;17.108;2023-06-26T06:14:24;9.18;;;8.27;;
13102;SDS011;52970;46.752;17.108;2023-06-26T06:16:49;8.80;;;7.85;;
13102;SDS011;52970;46.752;17.108;2023-06-26T06:19:15;9.43;;;8.20;;
13102;SDS011;52970;46.752;17.108;2023-06-26T06:21:40;8.77;;;7.88;;
13102;SDS011;52970;46.752;17.108;2023-06-26T06:24:05;10.05;;;8.02;;
13102;SDS011;52970;46.752;17.108;2023-06-26T06:26:32;10.25;;;8.90;;
13102;SDS011;52970;46.752;17.108;2023-06-26T06:28:57;8.57;;;7.53;;
13102;SDS011;52970;46.752;17.108;2023-06-26T06:31:23;10.48;;;7.90;;
13102;SDS011;52970;46.752;17.108;2023-06-26T06:33:48;8.43;;;7.60;;
13102;SDS011;52970;46.752;17.108;2023-06-26T06:36:14;10.63;;;8.20;;
13102;SDS011;52970;46.752;17.108;2023-06-26T06:38:42;8.38;;;7.57;;
13102;SDS011;52970;46.752;17.108;2023-06-26T06:41:08;10.20;;;7.88;;
13102;SDS011;52970;46.752;17.108;2023-06-26T06:43:33;8.93;;;7.45;;
13102;SDS011;52970;46.752;17.108;2023-06-26T06:45:58;9.02;;;7.55;;
13102;SDS011;52970;46.752;17.108;2023-06-26T06:48:24;10.27;;;7.47;;
13102;SDS011;52970;46.752;17.108;2023-06-26T06:50:49;8.63;;;7.63;;
13102;SDS011;52970;46.752;17.108;2023-06-26T06:53:14;8.77;;;7.30;;
13102;SDS011;52970;46.752;17.108;2023-06-26T06:55:40;8.98;;;7.22;;
13102;SDS011;52970;46.752;17.108;2023-06-26T06:58:05;8.57;;;7.75;;
13102;SDS011;52970;46.752;17.108;2023-06-26T07:00:30;9.07;;;7.75;;
13102;SDS011;52970;46.752;17.108;2023-06-26T07:02:56;7.72;;;6.93;;
13102;SDS011;52970;46.752;17.108;2023-06-26T07:05:22;10.25;;;7.50;;
13102;SDS011;52970;46.752;17.108;2023-06-26T07:07:47;9.05;;;7.35;;
13102;SDS011;52970;46.752;17.108;2023-06-26T07:10:13;9.68;;;8.00;;
13102;SDS011;52970;46.752;17.108;2023-06-26T07:12:38;8.95;;;7.25;;
13102;SDS011;52970;46.752;17.108;2023-06-26T07:15:04;7.75;;;6.78;;
13102;SDS011;52970;46.752;17.108;2023-06-26T07:17:33;9.18;;;6.97;;
13102;SDS011;52970;46.752;17.108;2023-06-26T07:19:59;8.80;;;6.85;;
13102;SDS011;52970;46.752;17.108;2023-06-26T07:22:24;7.78;;;7.07;;
13102;SDS011;52970;46.752;17.108;2023-06-26T07:24:50;8.30;;;7.30;;
13102;SDS011;52970;46.752;17.108;2023-06-26T07:27:15;7.55;;;6.80;;
13102;SDS011;52970;46.752;17.108;2023-06-26T07:29:41;8.68;;;7.25;;
13102;SDS011;52970;46.752;17.108;2023-06-26T07:32:06;8.55;;;7.18;;
13102;SDS011;52970;46.752;17.108;2023-06-26T07:34:31;8.23;;;7.22;;
13102;SDS011;52970;46.752;17.108;2023-06-26T07:36:57;7.70;;;6.90;;
13102;SDS011;52970;46.752;17.108;2023-06-26T07:39:22;7.60;;;6.85;;
13102;SDS011;52970;46.752;17.108;2023-06-26T07:41:47;7.72;;;7.00;;
13102;SDS011;52970;46.752;17.108;2023-06-26T07:44:12;7.77;;;6.30;;
13102;SDS011;52970;46.752;17.108;2023-06-26T07:46:39;8.55;;;6.82;;
13102;SDS011;52970;46.752;17.108;2023-06-26T07:49:04;8.52;;;6.72;;
13102;SDS011;52970;46.752;17.108;2023-06-26T07:51:29;7.15;;;6.22;;
13102;SDS011;52970;46.752;17.108;2023-06-26T07:53:55;8.83;;;6.90;;
13102;SDS011;52970;46.752;17.108;2023-06-26T07:56:20;7.63;;;6.50;;
13102;SDS011;52970;46.752;17.108;2023-06-26T07:58:45;7.40;;;6.55;;
13102;SDS011;52970;46.752;17.108;2023-06-26T08:01:10;8.77;;;6.88;;
13102;SDS011;52970;46.752;17.108;2023-06-26T08:03:36;7.57;;;6.50;;
13102;SDS011;52970;46.752;17.108;2023-06-26T08:06:02;7.75;;;7.05;;
13102;SDS011;52970;46.752;17.108;2023-06-26T08:08:28;6.35;;;5.82;;
13102;SDS011;52970;46.752;17.108;2023-06-26T08:10:53;7.00;;;6.30;;
13102;SDS011;52970;46.752;17.108;2023-06-26T08:13:20;6.18;;;5.57;;
13102;SDS011;52970;46.752;17.108;2023-06-26T08:15:45;7.00;;;5.93;;
13102;SDS011;52970;46.752;17.108;2023-06-26T08:18:10;7.18;;;6.45;;
13102;SDS011;52970;46.752;17.108;2023-06-26T08:20:36;6.78;;;6.07;;
13102;SDS011;52970;46.752;17.108;2023-06-26T08:23:03;6.72;;;6.00;;
13102;SDS011;52970;46.752;17.108;2023-06-26T08:25:28;6.65;;;5.97;;
13102;SDS011;52970;46.752;17.108;2023-06-26T08:27:54;6.68;;;6.13;;
13102;SDS011;52970;46.752;17.108;2023-06-26T08:30:20;7.88;;;6.72;;
13102;SDS011;52970;46.752;17.108;2023-06-26T08:32:45;7.40;;;6.70;;
13102;SDS011;52970;46.752;17.108;2023-06-26T08:35:10;7.55;;;6.63;;
13102;SDS011;52970;46.752;17.108;2023-06-26T08:37:36;8.10;;;6.65;;
13102;SDS011;52970;46.752;17.108;2023-06-26T08:40:01;7.10;;;6.17;;
13102;SDS011;52970;46.752;17.108;2023-06-26T08:42:26;6.95;;;6.25;;
13102;SDS011;52970;46.752;17.108;2023-06-26T08:44:51;7.03;;;6.13;;
13102;SDS011;52970;46.752;17.108;2023-06-26T08:47:17;6.72;;;6.10;;
13102;SDS011;52970;46.752;17.108;2023-06-26T08:49:46;6.38;;;5.70;;
13102;SDS011;52970;46.752;17.108;2023-06-26T08:52:19;6.55;;;5.43;;
13102;SDS011;52970;46.752;17.108;2023-06-26T08:54:48;7.57;;;6.30;;
13102;SDS011;52970;46.752;17.108;2023-06-26T08:57:18;6.68;;;6.07;;
13102;SDS011;52970;46.752;17.108;2023-06-26T08:59:43;6.32;;;5.72;;
13102;SDS011;52970;46.752;17.108;2023-06-26T09:02:09;6.20;;;5.60;;
13102;SDS011;52970;46.752;17.108;2023-06-26T09:04:35;6.85;;;6.20;;
13102;SDS011;52970;46.752;17.108;2023-06-26T09:07:01;5.53;;;4.97;;
13102;SDS011;52970;46.752;17.108;2023-06-26T09:09:26;6.90;;;5.13;;
13102;SDS011;52970;46.752;17.108;2023-06-26T09:11:52;9.40;;;5.53;;
13102;SDS011;52970;46.752;17.108;2023-06-26T09:14:17;6.03;;;5.43;;
13102;SDS011;52970;46.752;17.108;2023-06-26T09:16:42;7.40;;;5.70;;
13102;SDS011;52970;46.752;17.108;2023-06-26T09:19:11;7.22;;;5.80;;
13102;SDS011;52970;46.752;17.108;2023-06-26T09:21:37;6.18;;;5.55;;
13102;SDS011;52970;46.752;17.108;2023-06-26T09:24:03;6.22;;;4.90;;
13102;SDS011;52970;46.752;17.108;2023-06-26T09:26:28;6.03;;;5.43;;
13102;SDS011;52970;46.752;17.108;2023-06-26T09:28:53;6.00;;;5.50;;
13102;SDS011;52970;46.752;17.108;2023-06-26T09:31:19;5.88;;;5.25;;
13102;SDS011;52970;46.752;17.108;2023-06-26T09:33:46;6.60;;;5.90;;
13102;SDS011;52970;46.752;17.108;2023-06-26T09:36:18;6.60;;;5.60;;
13102;SDS011;52970;46.752;17.108;2023-06-26T09:38:44;6.03;;;5.43;;
13102;SDS011;52970;46.752;17.108;2023-06-26T09:41:09;6.00;;;5.50;;
13102;SDS011;52970;46.752;17.108;2023-06-26T09:43:34;7.50;;;6.03;;
13102;SDS011;52970;46.752;17.108;2023-06-26T09:46:10;6.18;;;5.68;;
13102;SDS011;52970;46.752;17.108;2023-06-26T09:48:40;6.22;;;5.63;;
13102;SDS011;52970;46.752;17.108;2023-06-26T09:51:05;5.63;;;5.13;;
13102;SDS011;52970;46.752;17.108;2023-06-26T09:53:30;6.10;;;5.60;;
13102;SDS011;52970;46.752;17.108;2023-06-26T09:55:55;6.77;;;6.10;;
13102;SDS011;52970;46.752;17.108;2023-06-26T09:58:20;7.38;;;5.72;;
13102;SDS011;52970;46.752;17.108;2023-06-26T10:00:47;6.70;;;6.10;;
13102;SDS011;52970;46.752;17.108;2023-06-26T10:03:12;5.82;;;5.20;;
13102;SDS011;52970;46.752;17.108;2023-06-26T10:05:38;6.28;;;5.68;;
13102;SDS011;52970;46.752;17.108;2023-06-26T10:08:04;6.15;;;5.55;;
13102;SDS011;52970;46.752;17.108;2023-06-26T10:10:30;6.53;;;5.63;;
13102;SDS011;52970;46.752;17.108;2023-06-26T10:12:59;6.22;;;5.63;;
13102;SDS011;52970;46.752;17.108;2023-06-26T10:15:24;5.82;;;5.32;;
13102;SDS011;52970;46.752;17.108;2023-06-26T10:17:50;6.28;;;5.65;;
13102;SDS011;52970;46.752;17.108;2023-06-26T10:20:16;6.15;;;5.55;;
13102;SDS011;52970;46.752;17.108;2023-06-26T10:22:46;6.50;;;5.90;;
13102;SDS011;52970;46.752;17.108;2023-06-26T10:25:12;5.70;;;5.20;;
13102;SDS011;52970;46.752;17.108;2023-06-26T10:27:41;6.68;;;5.57;;
13102;SDS011;52970;46.752;17.108;2023-06-26T10:30:09;5.68;;;5.10;;
13102;SDS011;52970;46.752;17.108;2023-06-26T10:32:36;6.85;;;5.57;;
13102;SDS011;52970;46.752;17.108;2023-06-26T10:35:02;7.15;;;5.45;;
13102;SDS011;52970;46.752;17.108;2023-06-26T10:37:44;5.85;;;5.35;;
13102;SDS011;52970;46.752;17.108;2023-06-26T10:40:09;5.75;;;5.22;;
13102;SDS011;52970;46.752;17.108;2023-06-26T10:42:36;6.30;;;5.70;;
13102;SDS011;52970;46.752;17.108;2023-06-26T10:45:14;6.00;;;5.40;;
13102;SDS011;52970;46.752;17.108;2023-06-26T10:47:40;7.55;;;5.75;;
13102;SDS011;52970;46.752;17.108;2023-06-26T10:53:07;5.50;;;4.95;;
13102;SDS011;52970;46.752;17.108;2023-06-26T10:55:31;7.25;;;5.32;;
13102;SDS011;52970;46.752;17.108;2023-06-26T10:57:57;5.68;;;5.18;;
13102;SDS011;52970;46.752;17.108;2023-06-26T11:00:22;5.77;;;5.17;;
13102;SDS011;52970;46.752;17.108;2023-06-26T11:02:51;5.13;;;4.72;;
13102;SDS011;52970;46.752;17.108;2023-06-26T11:05:32;5.47;;;4.97;;
13102;SDS011;52970;46.752;17.108;2023-06-26T11:08:08;5.82;;;5.10;;
13102;SDS011;52970;46.752;17.108;2023-06-26T11:10:53;5.22;;;4.78;;
13102;SDS011;52970;46.752;17.108;2023-06-26T11:13:18;4.78;;;4.38;;
13102;SDS011;52970;46.752;17.108;2023-06-26T11:15:44;5.20;;;4.80;;
13102;SDS011;52970;46.752;17.108;2023-06-26T11:18:09;5.40;;;4.93;;
13102;SDS011;52970;46.752;17.108;2023-06-26T11:20:35;5.40;;;4.68;;
13102;SDS011;52970;46.752;17.108;2023-06-26T11:23:00;5.30;;;4.85;;
13102;SDS011;52970;46.752;17.108;2023-06-26T11:25:26;5.32;;;4.10;;
13102;SDS011;52970;46.752;17.108;2023-06-26T11:27:53;4.95;;;4.55;;
13102;SDS011;52970;46.752;17.108;2023-06-26T11:30:25;5.07;;;4.68;;
13102;SDS011;52970;46.752;17.108;2023-06-26T11:32:50;5.55;;;4.55;;
13102;SDS011;52970;46.752;17.108;2023-06-26T11:35:22;4.82;;;4.43;;
13102;SDS011;52970;46.752;17.108;2023-06-26T11:37:48;6.13;;;5.50;;
13102;SDS011;52970;46.752;17.108;2023-06-26T11:40:20;5.45;;;4.95;;
13102;SDS011;52970;46.752;17.108;2023-06-26T11:42:46;5.15;;;4.75;;
13102;SDS011;52970;46.752;17.108;2023-06-26T11:45:12;5.45;;;4.93;;
13102;SDS011;52970;46.752;17.108;2023-06-26T11:47:38;5.72;;;4.47;;
13102;SDS011;52970;46.752;17.108;2023-06-26T11:50:04;5.13;;;4.68;;
13102;SDS011;52970;46.752;17.108;2023-06-26T11:52:30;5.13;;;4.72;;
13102;SDS011;52970;46.752;17.108;2023-06-26T11:54:57;5.63;;;4.65;;
13102;SDS011;52970;46.752;17.108;2023-06-26T11:57:22;5.47;;;4.40;;
13102;SDS011;52970;46.752;17.108;2023-06-26T11:59:49;5.13;;;4.63;;
13102;SDS011;52970;46.752;17.108;2023-06-26T12:02:15;5.20;;;4.80;;
13102;SDS011;52970;46.752;17.108;2023-06-26T12:04:41;4.65;;;4.25;;
13102;SDS011;52970;46.752;17.108;2023-06-26T12:07:07;4.97;;;4.53;;
13102;SDS011;52970;46.752;17.108;2023-06-26T12:09:38;4.80;;;4.40;;
13102;SDS011;52970;46.752;17.108;2023-06-26T12:12:05;5.43;;;4.72;;
13102;SDS011;52970;46.752;17.108;2023-06-26T12:14:31;4.30;;;3.90;;
13102;SDS011;52970;46.752;17.108;2023-06-26T12:17:03;5.03;;;4.63;;
13102;SDS011;52970;46.752;17.108;2023-06-26T12:19:28;4.85;;;4.35;;
13102;SDS011;52970;46.752;17.108;2023-06-26T12:21:54;5.50;;;5.00;;
13102;SDS011;52970;46.752;17.108;2023-06-26T12:24:22;4.93;;;4.53;;
13102;SDS011;52970;46.752;17.108;2023-06-26T12:26:54;6.88;;;4.82;;
13102;SDS011;52970;46.752;17.108;2023-06-26T12:29:22;4.80;;;4.30;;
13102;SDS011;52970;46.752;17.108;2023-06-26T12:31:53;5.07;;;4.32;;
13102;SDS011;52970;46.752;17.108;2023-06-26T12:36:53;4.68;;;4.10;;
13102;SDS011;52970;46.752;17.108;2023-06-26T12:39:21;4.40;;;4.00;;
13102;SDS011;52970;46.752;17.108;2023-06-26T12:41:54;4.20;;;3.80;;
13102;SDS011;52970;46.752;17.108;2023-06-26T12:44:27;4.22;;;3.83;;
13102;SDS011;52970;46.752;17.108;2023-06-26T12:46:59;4.43;;;3.83;;
13102;SDS011;52970;46.752;17.108;2023-06-26T12:49:34;4.40;;;4.00;;
13102;SDS011;52970;46.752;17.108;2023-06-26T12:52:00;3.97;;;3.67;;
13102;SDS011;52970;46.752;17.108;2023-06-26T12:54:26;5.43;;;4.22;;
13102;SDS011;52970;46.752;17.108;2023-06-26T12:56:52;4.88;;;3.95;;
13102;SDS011;52970;46.752;17.108;2023-06-26T12:59:17;4.38;;;4.07;;
13102;SDS011;52970;46.752;17.108;2023-06-26T13:01:42;4.10;;;3.80;;
13102;SDS011;52970;46.752;17.108;2023-06-26T13:04:08;4.30;;;3.90;;
13102;SDS011;52970;46.752;17.108;2023-06-26T13:06:33;4.55;;;4.15;;
13102;SDS011;52970;46.752;17.108;2023-06-26T13:08:59;4.25;;;3.80;;
13102;SDS011;52970;46.752;17.108;2023-06-26T13:11:24;4.22;;;3.83;;
13102;SDS011;52970;46.752;17.108;2023-06-26T13:13:49;4.30;;;3.90;;
13102;SDS011;52970;46.752;17.108;2023-06-26T13:16:15;4.38;;;3.97;;
13102;SDS011;52970;46.752;17.108;2023-06-26T13:18:41;3.92;;;3.53;;
13102;SDS011;52970;46.752;17.108;2023-06-26T13:21:06;4.55;;;4.15;;
13102;SDS011;52970;46.752;17.108;2023-06-26T13:23:31;4.68;;;3.90;;
13102;SDS011;52970;46.752;17.108;2023-06-26T13:25:57;4.72;;;4.22;;
13102;SDS011;52970;46.752;17.108;2023-06-26T13:28:22;4.73;;;4.20;;
13102;SDS011;52970;46.752;17.108;2023-06-26T13:30:47;4.00;;;3.58;;
13102;SDS011;52970;46.752;17.108;2023-06-26T13:33:13;3.92;;;3.63;;
13102;SDS011;52970;46.752;17.108;2023-06-26T13:35:38;4.00;;;3.70;;
13102;SDS011;52970;46.752;17.108;2023-06-26T13:38:03;4.53;;;3.90;;
13102;SDS011;52970;46.752;17.108;2023-06-26T13:40:28;4.25;;;3.85;;
13102;SDS011;52970;46.752;17.108;2023-06-26T13:42:54;3.97;;;3.67;;
13102;SDS011;52970;46.752;17.108;2023-06-26T13:45:19;3.83;;;3.53;;
13102;SDS011;52970;46.752;17.108;2023-06-26T13:47:44;4.30;;;3.50;;
13102;SDS011;52970;46.752;17.108;2023-06-26T13:50:09;4.00;;;3.70;;
13102;SDS011;52970;46.752;17.108;2023-06-26T13:52:35;4.15;;;3.78;;
13102;SDS011;52970;46.752;17.108;2023-06-26T13:55:00;3.75;;;3.45;;
13102;SDS011;52970;46.752;17.108;2023-06-26T13:57:29;3.85;;;3.55;;
13102;SDS011;52970;46.752;17.108;2023-06-26T13:59:55;4.00;;;3.60;;
13102;SDS011;52970;46.752;17.108;2023-06-26T14:02:20;4.17;;;3.77;;
13102;SDS011;52970;46.752;17.108;2023-06-26T14:04:45;3.80;;;3.50;;
13102;SDS011;52970;46.752;17.108;2023-06-26T14:07:11;3.60;;;3.30;;
13102;SDS011;52970;46.752;17.108;2023-06-26T14:09:36;4.00;;;3.70;;
13102;SDS011;52970;46.752;17.108;2023-06-26T14:12:01;3.50;;;3.20;;
13102;SDS011;52970;46.752;17.108;2023-06-26T14:14:27;3.90;;;3.60;;
13102;SDS011;52970;46.752;17.108;2023-06-26T14:16:52;3.73;;;3.10;;
13102;SDS011;52970;46.752;17.108;2023-06-26T14:19:17;4.10;;;3.70;;
13102;SDS011;52970;46.752;17.108;2023-06-26T14:21:42;3.47;;;3.17;;
13102;SDS011;52970;46.752;17.108;2023-06-26T14:24:08;4.55;;;3.33;;
13102;SDS011;52970;46.752;17.108;2023-06-26T14:26:33;3.83;;;3.53;;
13102;SDS011;52970;46.752;17.108;2023-06-26T14:28:59;4.00;;;3.70;;
13102;SDS011;52970;46.752;17.108;2023-06-26T14:31:24;4.25;;;3.85;;
13102;SDS011;52970;46.752;17.108;2023-06-26T14:33:49;3.80;;;3.30;;
13102;SDS011;52970;46.752;17.108;2023-06-26T14:36:15;3.90;;;3.60;;